Time;durP1;ratioP1;P1;durP2;ratioP2;P2;SDS_P1;SDS_P2;PMS_P1;PMS_P2;Temp;Humidity;BMP_temperature;BMP_pressure;BME280_temperature;BME280_humidity;BME280_pressure;Samples;Min_cycle;Max_cycle;Signal;HPM_P1;HPM_P2
2021/06/16 00:00:47;;;;;;;6.73;3.27;;;;;;;;;;5088103;28;20291;-59
2021/06/16 00:03:12;;;;;;;5.37;3.10;;;;;;;;;;5078992;28;20616;-60
2021/06/16 00:05:40;;;;;;;5.17;2.97;;;;;;;;;;5082058;28;20184;-60
2021/06/16 00:08:05;;;;;;;3.80;2.67;;;;;;;;;;5083977;28;20217;-59
2021/06/16 00:10:33;;;;;;;5.47;2.93;;;;;;;;;;5087877;28;20275;-59
2021/06/16 00:13:01;;;;;;;6.40;2.70;;;;;;;;;;5087105;28;20192;-59
2021/06/16 00:15:31;;;;;;;4.17;3.03;;;;;;;;;;5075054;28;20189;-61
2021/06/16 00:17:58;;;;;;;4.97;2.77;;;;;;;;;;5079153;28;21159;-60
2021/06/16 00:20:24;;;;;;;4.47;2.90;;;;;;;;;;5084487;28;20660;-59
2021/06/16 00:22:49;;;;;;;2.60;2.13;;;;;;;;;;5086656;28;20180;-59
2021/06/16 00:25:15;;;;;;;3.07;2.47;;;;;;;;;;5082500;28;20235;-60
2021/06/16 00:27:41;;;;;;;4.30;2.80;;;;;;;;;;5084852;28;20212;-61
2021/06/16 00:30:09;;;;;;;3.07;2.53;;;;;;;;;;5083528;28;20185;-60
2021/06/16 00:32:37;;;;;;;3.53;2.63;;;;;;;;;;5086514;28;20192;-61
2021/06/16 00:35:06;;;;;;;4.70;2.83;;;;;;;;;;5084883;28;20552;-61
2021/06/16 00:37:33;;;;;;;5.07;2.63;;;;;;;;;;5084928;28;20358;-59
2021/06/16 00:40:02;;;;;;;6.97;3.30;;;;;;;;;;5084379;28;20184;-61
2021/06/16 00:42:27;;;;;;;5.27;3.13;;;;;;;;;;5078336;28;20195;-61
2021/06/16 00:44:55;;;;;;;4.60;3.10;;;;;;;;;;5084409;28;20831;-62
2021/06/16 00:47:23;;;;;;;3.07;2.67;;;;;;;;;;5081700;28;20209;-60
2021/06/16 00:49:48;;;;;;;4.00;2.60;;;;;;;;;;5082768;28;20677;-60
2021/06/16 00:52:16;;;;;;;3.77;2.77;;;;;;;;;;5084947;28;20196;-60
2021/06/16 00:54:41;;;;;;;3.60;2.40;;;;;;;;;;5087030;28;20209;-61
2021/06/16 00:57:07;;;;;;;3.13;2.37;;;;;;;;;;5083707;28;20610;-60
2021/06/16 00:59:43;;;;;;;2.90;2.60;;;;;;;;;;5087555;28;20277;-60
2021/06/16 01:02:09;;;;;;;2.30;2.03;;;;;;;;;;5086868;28;20610;-60
2021/06/16 01:04:36;;;;;;;3.17;2.27;;;;;;;;;;5082702;28;20277;-58
2021/06/16 01:07:10;;;;;;;3.17;2.27;;;;;;;;;;5087157;28;20854;-62
2021/06/16 01:09:53;;;;;;;4.57;2.47;;;;;;;;;;5089381;28;20219;-57
2021/06/16 01:12:43;;;;;;;4.60;2.67;;;;;;;;;;5087606;28;20198;-59
2021/06/16 01:15:12;;;;;;;5.27;3.10;;;;;;;;;;5086746;28;20187;-60
2021/06/16 01:18:17;;;;;;;5.83;3.53;;;;;;;;;;5086280;28;20211;-59
2021/06/16 01:20:45;;;;;;;5.67;3.40;;;;;;;;;;4998925;28;20191;-61
2021/06/16 01:23:31;;;;;;;5.93;3.83;;;;;;;;;;5069686;28;20212;-61
2021/06/16 01:26:02;;;;;;;5.43;3.10;;;;;;;;;;5084709;28;20200;-59
2021/06/16 01:28:32;;;;;;;2.93;2.60;;;;;;;;;;5085325;28;20311;-59
2021/06/16 01:30:58;;;;;;;4.27;3.00;;;;;;;;;;5087754;28;20215;-59
2021/06/16 01:33:26;;;;;;;3.67;2.97;;;;;;;;;;5083450;28;20196;-61
2021/06/16 01:35:56;;;;;;;3.27;2.60;;;;;;;;;;5086168;28;20684;-59
2021/06/16 01:38:25;;;;;;;4.60;3.30;;;;;;;;;;5087706;28;20586;-59
2021/06/16 01:40:55;;;;;;;6.77;2.83;;;;;;;;;;5092313;28;20651;-61
2021/06/16 01:43:21;;;;;;;4.63;2.77;;;;;;;;;;5085489;28;20185;-59
2021/06/16 01:45:50;;;;;;;3.30;2.80;;;;;;;;;;5086028;28;20196;-59
2021/06/16 01:48:20;;;;;;;3.43;2.50;;;;;;;;;;5086801;28;20579;-61
2021/06/16 01:50:51;;;;;;;5.43;2.97;;;;;;;;;;5089636;28;20374;-62
2021/06/16 01:53:22;;;;;;;3.33;3.03;;;;;;;;;;5079139;28;20174;-61
2021/06/16 01:55:51;;;;;;;5.50;3.10;;;;;;;;;;5086186;28;20611;-60
2021/06/16 01:58:18;;;;;;;4.23;3.07;;;;;;;;;;5081379;28;20357;-60
2021/06/16 02:00:50;;;;;;;2.93;2.50;;;;;;;;;;5087979;28;20191;-60
2021/06/16 02:03:15;;;;;;;5.23;2.50;;;;;;;;;;5091793;28;20271;-61
2021/06/16 02:05:45;;;;;;;3.57;2.87;;;;;;;;;;5086139;28;20867;-60
2021/06/16 02:08:15;;;;;;;5.63;3.00;;;;;;;;;;5085512;28;20238;-59
2021/06/16 02:10:44;;;;;;;3.10;2.20;;;;;;;;;;5084218;28;20720;-61
2021/06/16 02:13:12;;;;;;;3.57;1.87;;;;;;;;;;5066045;28;20193;-60
2021/06/16 02:16:07;;;;;;;5.47;2.30;;;;;;;;;;5090593;28;20184;-60
2021/06/16 02:19:01;;;;;;;2.90;2.20;;;;;;;;;;5085371;28;20280;-59
2021/06/16 02:21:30;;;;;;;5.17;2.10;;;;;;;;;;5089302;28;20672;-60
2021/06/16 02:23:58;;;;;;;5.87;2.53;;;;;;;;;;5088009;28;20189;-59
2021/06/16 02:26:26;;;;;;;5.30;2.70;;;;;;;;;;5083278;28;20216;-62
2021/06/16 02:28:56;;;;;;;5.17;2.33;;;;;;;;;;5084376;28;20221;-61
2021/06/16 02:31:21;;;;;;;6.47;2.10;;;;;;;;;;5079895;28;20243;-62
2021/06/16 02:33:51;;;;;;;7.73;2.43;;;;;;;;;;5084216;28;20647;-59
2021/06/16 02:36:18;;;;;;;5.80;2.23;;;;;;;;;;5088683;28;20849;-60
2021/06/16 02:38:45;;;;;;;5.73;1.97;;;;;;;;;;5086448;28;20583;-59
2021/06/16 02:41:15;;;;;;;6.00;2.30;;;;;;;;;;5088764;28;20188;-59
2021/06/16 02:43:41;;;;;;;4.53;2.23;;;;;;;;;;5088736;28;20288;-60
2021/06/16 02:46:10;;;;;;;5.70;2.03;;;;;;;;;;5090589;28;20192;-60
2021/06/16 02:48:39;;;;;;;3.20;2.30;;;;;;;;;;5085862;28;20564;-60
2021/06/16 02:51:06;;;;;;;5.53;2.47;;;;;;;;;;5088350;28;20239;-61
2021/06/16 02:53:33;;;;;;;4.03;3.00;;;;;;;;;;5088658;28;20191;-59
2021/06/16 02:56:02;;;;;;;5.50;2.57;;;;;;;;;;5088330;28;20221;-60
2021/06/16 02:58:33;;;;;;;4.50;2.27;;;;;;;;;;5085021;28;20208;-60
2021/06/16 03:01:01;;;;;;;4.97;2.13;;;;;;;;;;5085050;28;20710;-60
2021/06/16 03:03:29;;;;;;;7.63;2.30;;;;;;;;;;5080755;28;20672;-61
2021/06/16 03:05:57;;;;;;;4.43;2.83;;;;;;;;;;5082885;28;20180;-59
2021/06/16 03:08:27;;;;;;;3.30;2.90;;;;;;;;;;5085258;28;20240;-60
2021/06/16 03:10:56;;;;;;;7.37;2.83;;;;;;;;;;5088250;28;20195;-61
2021/06/16 03:13:25;;;;;;;7.27;2.90;;;;;;;;;;5082711;28;20195;-61
2021/06/16 03:15:53;;;;;;;5.87;3.40;;;;;;;;;;5080808;28;20593;-61
2021/06/16 03:18:23;;;;;;;3.70;2.40;;;;;;;;;;5079723;28;20200;-62
2021/06/16 03:20:53;;;;;;;5.83;2.83;;;;;;;;;;5083331;28;20223;-58
2021/06/16 03:23:19;;;;;;;2.90;2.60;;;;;;;;;;5084282;28;20184;-60
2021/06/16 03:25:48;;;;;;;2.93;2.00;;;;;;;;;;5079573;28;20236;-61
2021/06/16 03:28:18;;;;;;;3.10;2.50;;;;;;;;;;5090022;28;20223;-59
2021/06/16 03:30:46;;;;;;;3.40;2.40;;;;;;;;;;5091215;28;20565;-60
2021/06/16 03:33:12;;;;;;;3.83;2.20;;;;;;;;;;5089619;28;20180;-59
2021/06/16 03:35:40;;;;;;;5.53;2.23;;;;;;;;;;5086320;28;20326;-59
2021/06/16 03:38:08;;;;;;;10.50;3.20;;;;;;;;;;5085905;28;20676;-60
2021/06/16 03:40:34;;;;;;;13.20;2.73;;;;;;;;;;5083377;28;20946;-61
2021/06/16 03:43:04;;;;;;;5.30;2.50;;;;;;;;;;5080197;28;20188;-61
2021/06/16 03:45:30;;;;;;;7.77;2.93;;;;;;;;;;5118905;22;20226;-54
2021/06/16 03:47:58;;;;;;;6.17;2.83;;;;;;;;;;5105178;28;20664;-53
2021/06/16 03:50:25;;;;;;;5.50;2.70;;;;;;;;;;5108317;27;20198;-54
2021/06/16 03:52:54;;;;;;;6.77;2.80;;;;;;;;;;5111589;27;20231;-53
2021/06/16 03:55:19;;;;;;;5.80;2.57;;;;;;;;;;5112622;27;20216;-52
2021/06/16 03:57:47;;;;;;;7.23;2.60;;;;;;;;;;5104192;28;20168;-53
2021/06/16 04:00:19;;;;;;;4.57;2.80;;;;;;;;;;5108348;27;20191;-52
2021/06/16 04:02:49;;;;;;;5.10;2.90;;;;;;;;;;5107358;27;20260;-52
2021/06/16 04:05:20;;;;;;;7.67;3.00;;;;;;;;;;5112974;27;20294;-54
2021/06/16 04:07:48;;;;;;;6.17;2.67;;;;;;;;;;5105547;27;20303;-53
2021/06/16 04:10:19;;;;;;;3.63;2.50;;;;;;;;;;5118494;27;20194;-54
2021/06/16 04:12:50;;;;;;;5.50;2.83;;;;;;;;;;5105941;27;20190;-53
2021/06/16 04:15:19;;;;;;;3.90;3.07;;;;;;;;;;5103299;28;20215;-52
2021/06/16 04:17:47;;;;;;;3.87;2.87;;;;;;;;;;5100931;28;20184;-52
2021/06/16 04:20:17;;;;;;;4.97;2.77;;;;;;;;;;5105119;27;20204;-53
2021/06/16 04:22:43;;;;;;;7.13;3.20;;;;;;;;;;5107253;28;20191;-52
2021/06/16 04:25:12;;;;;;;6.93;2.93;;;;;;;;;;5094526;28;20211;-53
2021/06/16 04:27:40;;;;;;;6.13;3.37;;;;;;;;;;5097670;27;20267;-51
2021/06/16 04:30:12;;;;;;;7.00;2.70;;;;;;;;;;5103697;28;20671;-53
2021/06/16 04:32:43;;;;;;;5.90;3.30;;;;;;;;;;5101155;28;20191;-53
2021/06/16 04:35:11;;;;;;;5.67;2.70;;;;;;;;;;5101885;28;20210;-52
2021/06/16 04:37:37;;;;;;;14.00;4.73;;;;;;;;;;5100063;28;20237;-53
2021/06/16 04:40:06;;;;;;;6.60;3.23;;;;;;;;;;5096325;28;20192;-54
2021/06/16 04:42:34;;;;;;;7.67;2.47;;;;;;;;;;5099248;28;20459;-53
2021/06/16 04:45:00;;;;;;;6.70;3.10;;;;;;;;;;5106771;28;20218;-52
2021/06/16 04:47:30;;;;;;;5.47;2.67;;;;;;;;;;5103344;28;20195;-51
2021/06/16 04:49:56;;;;;;;6.30;2.80;;;;;;;;;;5099631;28;20619;-53
2021/06/16 04:52:21;;;;;;;6.23;2.90;;;;;;;;;;5103266;28;20184;-54
2021/06/16 04:54:46;;;;;;;8.67;2.93;;;;;;;;;;5101807;28;20371;-53
2021/06/16 04:57:12;;;;;;;6.40;3.00;;;;;;;;;;5096590;28;20185;-53
2021/06/16 04:59:42;;;;;;;5.67;2.83;;;;;;;;;;5112175;28;20222;-54
2021/06/16 05:02:09;;;;;;;5.37;3.17;;;;;;;;;;5104185;28;20321;-54
2021/06/16 05:04:35;;;;;;;4.87;2.40;;;;;;;;;;5113013;28;20301;-54
2021/06/16 05:07:00;;;;;;;7.07;3.17;;;;;;;;;;5112438;28;20554;-54
2021/06/16 05:09:27;;;;;;;8.30;3.07;;;;;;;;;;5118374;28;20278;-51
2021/06/16 05:11:55;;;;;;;4.10;2.70;;;;;;;;;;5102919;28;20582;-53
2021/06/16 05:14:24;;;;;;;4.70;2.70;;;;;;;;;;5102631;28;20350;-53
2021/06/16 05:16:49;;;;;;;5.40;2.83;;;;;;;;;;5103859;28;20947;-52
2021/06/16 05:19:20;;;;;;;4.53;2.93;;;;;;;;;;5110911;28;20196;-53
2021/06/16 05:21:50;;;;;;;8.13;3.37;;;;;;;;;;5110055;28;20215;-54
2021/06/16 05:24:17;;;;;;;4.80;2.77;;;;;;;;;;5111311;28;20346;-55
2021/06/16 05:26:42;;;;;;;6.73;3.53;;;;;;;;;;5108226;28;20191;-52
2021/06/16 05:29:09;;;;;;;6.00;3.10;;;;;;;;;;5105531;28;20211;-54
2021/06/16 05:31:37;;;;;;;6.93;3.10;;;;;;;;;;5105674;28;20192;-54
2021/06/16 05:34:05;;;;;;;7.30;3.07;;;;;;;;;;5104909;28;20206;-52
2021/06/16 05:36:37;;;;;;;7.60;3.13;;;;;;;;;;5102276;28;20640;-53
2021/06/16 05:39:07;;;;;;;4.80;2.97;;;;;;;;;;5109462;28;20194;-54
2021/06/16 05:41:37;;;;;;;5.57;3.13;;;;;;;;;;5098091;28;20299;-52
2021/06/16 05:44:07;;;;;;;7.63;3.27;;;;;;;;;;5107530;28;20220;-53
2021/06/16 05:46:35;;;;;;;6.30;2.57;;;;;;;;;;5110316;28;20971;-52
2021/06/16 05:49:02;;;;;;;4.37;3.07;;;;;;;;;;5101166;28;20211;-53
2021/06/16 05:51:28;;;;;;;4.33;3.10;;;;;;;;;;5106110;28;20203;-54
2021/06/16 05:53:55;;;;;;;4.57;3.40;;;;;;;;;;5115868;27;20668;-54
2021/06/16 05:56:21;;;;;;;7.50;2.93;;;;;;;;;;5114377;27;20191;-54
2021/06/16 05:58:46;;;;;;;4.47;2.50;;;;;;;;;;5108424;28;20187;-54
2021/06/16 06:01:11;;;;;;;5.80;3.07;;;;;;;;;;5111359;27;20667;-53
2021/06/16 06:03:37;;;;;;;4.40;3.27;;;;;;;;;;5102072;28;20718;-52
2021/06/16 06:06:07;;;;;;;4.60;2.53;;;;;;;;;;5104516;28;20663;-52
2021/06/16 06:08:35;;;;;;;12.03;3.83;;;;;;;;;;5104299;28;20635;-52
2021/06/16 06:11:06;;;;;;;5.53;3.50;;;;;;;;;;5109881;28;20613;-53
2021/06/16 06:13:31;;;;;;;5.30;2.93;;;;;;;;;;5112355;27;20244;-54
2021/06/16 06:15:58;;;;;;;5.63;3.37;;;;;;;;;;5108680;27;20200;-53
2021/06/16 06:18:24;;;;;;;3.63;3.00;;;;;;;;;;5110583;27;20186;-54
2021/06/16 06:20:56;;;;;;;5.53;3.27;;;;;;;;;;5107987;27;20201;-54
2021/06/16 06:23:27;;;;;;;3.60;2.67;;;;;;;;;;5106820;28;20222;-53
2021/06/16 06:25:54;;;;;;;4.77;2.73;;;;;;;;;;5096838;28;20199;-54
2021/06/16 06:28:22;;;;;;;5.43;2.87;;;;;;;;;;5097554;28;20264;-51
2021/06/16 06:30:47;;;;;;;6.33;2.43;;;;;;;;;;5105214;27;20308;-54
2021/06/16 06:33:13;;;;;;;8.03;2.63;;;;;;;;;;5105174;28;20269;-52
2021/06/16 06:35:38;;;;;;;6.03;3.20;;;;;;;;;;5098818;28;20220;-52
2021/06/16 06:38:06;;;;;;;4.30;3.13;;;;;;;;;;5097046;27;20188;-52
2021/06/16 06:40:32;;;;;;;4.90;2.57;;;;;;;;;;5105840;28;20694;-52
2021/06/16 06:43:02;;;;;;;4.27;2.70;;;;;;;;;;5106353;28;20205;-54
2021/06/16 06:45:29;;;;;;;6.87;3.23;;;;;;;;;;5105561;27;20211;-53
2021/06/16 06:47:55;;;;;;;4.10;2.93;;;;;;;;;;5106220;28;20211;-53
2021/06/16 06:50:20;;;;;;;5.10;3.10;;;;;;;;;;5104662;28;20200;-53
2021/06/16 06:52:48;;;;;;;6.00;2.50;;;;;;;;;;5097802;28;20200;-53
2021/06/16 06:55:17;;;;;;;3.83;2.57;;;;;;;;;;5100266;28;20609;-53
2021/06/16 06:57:45;;;;;;;3.87;2.80;;;;;;;;;;5107200;28;20176;-53
2021/06/16 07:00:12;;;;;;;4.83;2.90;;;;;;;;;;5108096;27;20192;-54
2021/06/16 07:02:38;;;;;;;7.20;3.00;;;;;;;;;;5104908;28;20198;-53
2021/06/16 07:05:08;;;;;;;3.80;2.90;;;;;;;;;;5099291;28;20283;-53
2021/06/16 07:07:33;;;;;;;7.93;3.33;;;;;;;;;;5101389;28;20209;-52
2021/06/16 07:09:58;;;;;;;9.83;3.07;;;;;;;;;;5104865;28;20192;-53
2021/06/16 07:12:24;;;;;;;4.57;3.25;;;;;;;;;;5103132;27;20690;-52
2021/06/16 07:14:52;;;;;;;7.28;3.00;;;;;;;;;;5101184;28;20331;-54
2021/06/16 07:17:22;;;;;;;4.97;3.00;;;;;;;;;;5104084;27;20299;-52
2021/06/16 07:19:52;;;;;;;6.70;3.08;;;;;;;;;;5107064;28;20188;-52
2021/06/16 07:22:20;;;;;;;4.63;2.90;;;;;;;;;;5105308;28;20235;-52
2021/06/16 07:24:50;;;;;;;5.25;2.88;;;;;;;;;;5104003;28;20200;-53
2021/06/16 07:27:18;;;;;;;3.03;2.53;;;;;;;;;;5098930;28;20653;-54
2021/06/16 07:29:43;;;;;;;6.18;3.30;;;;;;;;;;5098221;28;20801;-51
2021/06/16 07:32:11;;;;;;;3.30;2.80;;;;;;;;;;5114589;27;20179;-54
2021/06/16 07:34:39;;;;;;;5.20;3.00;;;;;;;;;;5104047;28;20850;-54
2021/06/16 07:37:07;;;;;;;8.07;3.38;;;;;;;;;;5102687;28;20195;-53
2021/06/16 07:39:32;;;;;;;4.00;3.08;;;;;;;;;;5104531;27;20184;-54
2021/06/16 07:41:57;;;;;;;4.90;3.20;;;;;;;;;;5111977;27;20194;-52
2021/06/16 07:44:26;;;;;;;8.55;3.60;;;;;;;;;;5109785;27;20264;-53
2021/06/16 07:46:51;;;;;;;4.07;3.20;;;;;;;;;;5103955;27;20218;-54
2021/06/16 07:49:16;;;;;;;5.35;3.70;;;;;;;;;;5116244;27;20650;-53
2021/06/16 07:51:42;;;;;;;4.40;3.67;;;;;;;;;;5111299;27;20189;-54
2021/06/16 07:54:11;;;;;;;5.20;3.20;;;;;;;;;;5114755;27;20230;-55
2021/06/16 07:56:40;;;;;;;5.65;3.80;;;;;;;;;;5104036;28;20184;-54
2021/06/16 07:59:08;;;;;;;5.00;3.92;;;;;;;;;;5102347;28;20202;-55
2021/06/16 08:01:34;;;;;;;7.65;3.90;;;;;;;;;;5102073;28;20648;-54
2021/06/16 08:04:04;;;;;;;6.10;3.60;;;;;;;;;;5103401;28;20208;-52
2021/06/16 08:06:30;;;;;;;5.32;4.03;;;;;;;;;;5103051;28;20268;-54
2021/06/16 08:08:55;;;;;;;7.35;4.38;;;;;;;;;;5102192;28;20286;-54
2021/06/16 08:11:22;;;;;;;6.10;4.50;;;;;;;;;;5098051;27;20592;-53
2021/06/16 08:13:50;;;;;;;6.00;4.70;;;;;;;;;;5100456;27;20792;-54
2021/06/16 08:16:18;;;;;;;6.32;4.53;;;;;;;;;;5101334;27;20183;-51
2021/06/16 08:18:47;;;;;;;5.63;4.70;;;;;;;;;;5113722;27;20249;-53
2021/06/16 08:21:13;;;;;;;7.43;5.70;;;;;;;;;;5107859;27;20231;-51
2021/06/16 08:23:42;;;;;;;8.57;5.68;;;;;;;;;;5100503;27;20187;-53
2021/06/16 08:26:12;;;;;;;7.00;5.47;;;;;;;;;;5113412;27;20187;-53
2021/06/16 08:28:40;;;;;;;6.47;5.32;;;;;;;;;;5102992;28;20623;-54
2021/06/16 08:31:06;;;;;;;6.10;5.50;;;;;;;;;;5105234;28;20187;-53
2021/06/16 08:33:37;;;;;;;8.75;6.10;;;;;;;;;;5098915;28;20180;-55
2021/06/16 08:36:07;;;;;;;6.80;5.88;;;;;;;;;;5100065;28;20187;-54
2021/06/16 08:38:33;;;;;;;6.50;5.90;;;;;;;;;;5119994;27;20671;-54
2021/06/16 08:41:07;;;;;;;8.23;5.60;;;;;;;;;;5104032;28;20180;-54
2021/06/16 08:43:42;;;;;;;7.22;6.53;;;;;;;;;;5106859;28;20168;-54
2021/06/16 08:46:14;;;;;;;9.80;5.93;;;;;;;;;;5106711;28;20404;-53
2021/06/16 08:48:44;;;;;;;8.35;6.50;;;;;;;;;;5105389;28;20838;-54
2021/06/16 08:51:13;;;;;;;8.15;7.32;;;;;;;;;;5104614;28;20199;-55
2021/06/16 08:53:38;;;;;;;8.10;7.30;;;;;;;;;;5102854;28;20242;-54
2021/06/16 08:56:07;;;;;;;7.68;6.88;;;;;;;;;;5100727;28;20559;-54
2021/06/16 08:58:37;;;;;;;10.02;7.18;;;;;;;;;;5106296;28;20643;-54
2021/06/16 09:01:06;;;;;;;12.10;7.35;;;;;;;;;;5105107;28;20632;-54
2021/06/16 09:03:32;;;;;;;13.13;8.40;;;;;;;;;;5103891;28;20274;-54
2021/06/16 09:06:04;;;;;;;10.07;8.13;;;;;;;;;;5102048;28;20376;-52
2021/06/16 09:08:29;;;;;;;11.68;9.10;;;;;;;;;;5104372;28;20199;-53
2021/06/16 09:10:57;;;;;;;12.05;8.43;;;;;;;;;;5104775;28;20685;-53
2021/06/16 09:13:38;;;;;;;10.05;8.85;;;;;;;;;;5094759;28;20192;-52
2021/06/16 09:16:24;;;;;;;10.30;8.27;;;;;;;;;;5101003;28;20358;-53
2021/06/16 09:18:54;;;;;;;9.48;8.57;;;;;;;;;;5095562;28;20298;-55
2021/06/16 09:21:37;;;;;;;10.35;9.35;;;;;;;;;;5100084;28;20195;-54
2021/06/16 09:24:03;;;;;;;9.15;8.25;;;;;;;;;;5100078;28;20199;-54
2021/06/16 09:26:37;;;;;;;10.20;8.38;;;;;;;;;;5092519;28;20672;-53
2021/06/16 09:29:03;;;;;;;10.65;6.35;;;;;;;;;;5097641;28;20217;-54
2021/06/16 09:31:40;;;;;;;14.90;9.95;;;;;;;;;;5096610;28;20655;-53
2021/06/16 09:34:14;;;;;;;10.13;9.02;;;;;;;;;;5099529;28;20727;-54
2021/06/16 09:37:06;;;;;;;10.57;9.25;;;;;;;;;;5096521;28;20185;-54
2021/06/16 09:39:32;;;;;;;11.57;9.77;;;;;;;;;;5095186;28;20201;-53
2021/06/16 09:42:11;;;;;;;8.80;7.93;;;;;;;;;;5095692;28;20590;-54
2021/06/16 09:44:50;;;;;;;9.95;9.05;;;;;;;;;;5094663;28;20204;-54
2021/06/16 09:47:21;;;;;;;12.93;10.00;;;;;;;;;;5102384;28;20193;-54
2021/06/16 09:49:52;;;;;;;11.30;10.10;;;;;;;;;;5093369;28;20210;-54
2021/06/16 09:52:43;;;;;;;11.18;10.10;;;;;;;;;;5090123;28;20185;-54
2021/06/16 09:55:30;;;;;;;11.75;8.38;;;;;;;;;;5094731;28;20205;-53
2021/06/16 09:58:04;;;;;;;10.23;8.25;;;;;;;;;;5097759;28;20177;-53
2021/06/16 10:00:38;;;;;;;11.18;9.88;;;;;;;;;;5095001;28;20259;-53
2021/06/16 10:03:08;;;;;;;15.50;10.55;;;;;;;;;;5107345;28;20613;-53
2021/06/16 10:05:35;;;;;;;16.52;11.32;;;;;;;;;;5097834;28;20196;-53
2021/06/16 10:08:08;;;;;;;13.75;12.07;;;;;;;;;;5104619;27;20556;-53
2021/06/16 10:10:36;;;;;;;14.60;12.25;;;;;;;;;;5113252;27;20272;-54
2021/06/16 10:13:08;;;;;;;12.40;10.68;;;;;;;;;;5107240;28;20190;-53
2021/06/16 10:15:34;;;;;;;15.85;11.98;;;;;;;;;;5103137;27;20214;-53
2021/06/16 10:18:02;;;;;;;18.13;14.25;;;;;;;;;;5100928;27;20185;-54
2021/06/16 10:20:32;;;;;;;15.63;13.52;;;;;;;;;;5099472;27;20192;-53
2021/06/16 10:23:00;;;;;;;14.60;13.05;;;;;;;;;;5112801;27;20226;-53
2021/06/16 10:25:28;;;;;;;16.52;13.88;;;;;;;;;;5107512;27;20583;-54
2021/06/16 10:27:58;;;;;;;18.42;13.57;;;;;;;;;;5099842;28;20192;-54
2021/06/16 10:30:27;;;;;;;15.70;13.50;;;;;;;;;;5105031;27;20673;-54
2021/06/16 10:32:55;;;;;;;16.42;12.95;;;;;;;;;;5093742;28;20695;-54
2021/06/16 10:35:33;;;;;;;18.45;13.80;;;;;;;;;;5102402;27;20277;-53
2021/06/16 10:38:20;;;;;;;15.35;13.77;;;;;;;;;;5106079;28;20176;-53
2021/06/16 10:40:52;;;;;;;14.85;13.13;;;;;;;;;;5107282;27;20181;-54
2021/06/16 10:43:27;;;;;;;15.32;12.88;;;;;;;;;;5117642;27;20179;-54
2021/06/16 10:45:58;;;;;;;14.07;12.75;;;;;;;;;;5100075;28;20900;-55
2021/06/16 10:48:50;;;;;;;17.73;13.38;;;;;;;;;;5112159;27;20212;-53
2021/06/16 10:51:26;;;;;;;11.98;10.82;;;;;;;;;;5101856;27;20767;-53
2021/06/16 10:54:28;;;;;;;13.50;12.07;;;;;;;;;;5103412;27;20832;-53
2021/06/16 10:56:58;;;;;;;19.35;12.10;;;;;;;;;;5081000;27;20214;-54
2021/06/16 10:59:46;;;;;;;14.40;13.05;;;;;;;;;;5105231;28;20266;-54
2021/06/16 11:02:17;;;;;;;13.25;11.85;;;;;;;;;;5090114;27;20310;-53
2021/06/16 11:04:47;;;;;;;13.73;12.25;;;;;;;;;;5104114;28;20202;-54
2021/06/16 11:07:34;;;;;;;12.32;10.75;;;;;;;;;;5100424;28;20375;-51
2021/06/16 11:10:06;;;;;;;9.45;8.50;;;;;;;;;;5093175;27;20188;-54
2021/06/16 11:12:33;;;;;;;16.90;12.48;;;;;;;;;;5093832;27;20238;-53
2021/06/16 11:15:00;;;;;;;14.25;12.85;;;;;;;;;;5097183;28;20965;-54
2021/06/16 11:17:28;;;;;;;14.13;11.32;;;;;;;;;;5103410;27;20528;-52
2021/06/16 11:20:03;;;;;;;13.02;11.68;;;;;;;;;;5094538;27;20191;-56
2021/06/16 11:22:29;;;;;;;15.00;11.50;;;;;;;;;;5101508;28;20659;-53
2021/06/16 11:25:06;;;;;;;13.45;10.95;;;;;;;;;;5100919;28;20212;-53
2021/06/16 11:27:52;;;;;;;12.70;11.45;;;;;;;;;;5104437;27;20204;-53
2021/06/16 11:30:34;;;;;;;13.90;11.13;;;;;;;;;;5109850;27;20253;-53
2021/06/16 11:33:11;;;;;;;12.57;11.35;;;;;;;;;;5104618;27;20203;-54
2021/06/16 11:35:41;;;;;;;13.35;12.07;;;;;;;;;;5105706;28;20211;-53
2021/06/16 11:38:13;;;;;;;11.82;10.70;;;;;;;;;;5101107;27;20198;-53
2021/06/16 11:40:49;;;;;;;14.20;12.13;;;;;;;;;;5113176;27;20682;-53
2021/06/16 11:43:46;;;;;;;12.18;10.93;;;;;;;;;;5110705;27;20184;-52
2021/06/16 11:46:30;;;;;;;13.13;11.25;;;;;;;;;;5106481;27;20191;-55
2021/06/16 11:49:00;;;;;;;13.30;11.52;;;;;;;;;;5109120;27;21119;-56
2021/06/16 11:51:56;;;;;;;13.18;11.13;;;;;;;;;;5107482;27;20218;-56
2021/06/16 11:54:22;;;;;;;13.45;9.73;;;;;;;;;;5098036;27;20359;-53
2021/06/16 11:56:58;;;;;;;13.73;11.55;;;;;;;;;;5105536;27;20193;-54
2021/06/16 11:59:39;;;;;;;13.20;11.00;;;;;;;;;;5111607;27;20279;-54
2021/06/16 12:02:07;;;;;;;14.07;12.57;;;;;;;;;;5102675;27;20257;-53
2021/06/16 12:04:43;;;;;;;14.80;11.45;;;;;;;;;;5104901;27;20297;-54
2021/06/16 12:07:13;;;;;;;12.93;11.65;;;;;;;;;;5106943;27;20777;-54
2021/06/16 12:09:49;;;;;;;10.73;9.73;;;;;;;;;;5098447;27;20246;-54
2021/06/16 12:12:15;;;;;;;13.63;11.98;;;;;;;;;;5098423;27;20192;-53
2021/06/16 12:14:45;;;;;;;15.75;12.77;;;;;;;;;;5102979;27;20204;-53
2021/06/16 12:17:10;;;;;;;12.80;11.50;;;;;;;;;;5090633;28;20325;-53
2021/06/16 12:19:39;;;;;;;15.20;10.85;;;;;;;;;;5093042;28;20187;-53
2021/06/16 12:22:08;;;;;;;12.02;8.95;;;;;;;;;;5100769;28;20275;-55
2021/06/16 12:24:44;;;;;;;13.77;10.43;;;;;;;;;;5102543;28;20724;-53
2021/06/16 12:27:17;;;;;;;13.65;10.27;;;;;;;;;;5101666;28;20320;-55
2021/06/16 12:29:50;;;;;;;11.63;10.35;;;;;;;;;;5099176;28;20192;-53
2021/06/16 12:32:33;;;;;;;12.68;10.38;;;;;;;;;;5099985;28;20697;-52
2021/06/16 12:35:17;;;;;;;13.15;10.52;;;;;;;;;;5101270;28;20574;-53
2021/06/16 12:37:50;;;;;;;11.30;10.13;;;;;;;;;;5100778;28;20196;-55
2021/06/16 12:40:17;;;;;;;20.10;10.50;;;;;;;;;;5090914;28;20240;-54
2021/06/16 12:42:47;;;;;;;12.23;10.68;;;;;;;;;;5101416;28;20202;-52
2021/06/16 12:45:33;;;;;;;13.25;11.65;;;;;;;;;;5106693;27;20251;-53
2021/06/16 12:48:01;;;;;;;11.35;10.15;;;;;;;;;;5097277;28;20215;-52
2021/06/16 12:50:27;;;;;;;13.38;10.40;;;;;;;;;;5104586;28;20179;-52
2021/06/16 12:52:52;;;;;;;12.85;10.63;;;;;;;;;;5100940;28;20193;-53
2021/06/16 12:55:21;;;;;;;12.68;9.52;;;;;;;;;;5109200;28;20259;-53
2021/06/16 12:57:51;;;;;;;11.40;10.13;;;;;;;;;;5105675;28;20188;-53
2021/06/16 13:00:19;;;;;;;10.65;9.65;;;;;;;;;;5105597;28;20244;-52
2021/06/16 13:02:44;;;;;;;11.23;10.13;;;;;;;;;;5113551;28;20185;-53
2021/06/16 13:05:14;;;;;;;11.43;9.75;;;;;;;;;;5107219;28;20204;-54
2021/06/16 13:07:41;;;;;;;11.23;9.65;;;;;;;;;;5100459;28;20207;-52
2021/06/16 13:10:23;;;;;;;12.98;10.32;;;;;;;;;;5100096;28;20184;-52
2021/06/16 13:12:59;;;;;;;11.02;9.25;;;;;;;;;;5109372;28;20187;-52
2021/06/16 13:15:28;;;;;;;13.05;10.52;;;;;;;;;;5107835;28;20210;-53
2021/06/16 13:17:57;;;;;;;11.38;9.68;;;;;;;;;;5105757;28;20188;-53
2021/06/16 13:20:36;;;;;;;10.75;9.18;;;;;;;;;;5104823;28;20211;-53
2021/06/16 13:23:33;;;;;;;10.57;9.48;;;;;;;;;;5102972;28;20188;-53
2021/06/16 13:26:07;;;;;;;10.90;9.93;;;;;;;;;;5096553;28;20199;-53
2021/06/16 13:28:39;;;;;;;10.77;8.50;;;;;;;;;;5105985;28;20226;-52
2021/06/16 13:31:23;;;;;;;15.38;10.13;;;;;;;;;;5109180;28;20278;-55
2021/06/16 13:33:51;;;;;;;10.82;9.38;;;;;;;;;;5105074;28;20238;-51
2021/06/16 13:36:27;;;;;;;12.38;9.73;;;;;;;;;;5106847;27;20184;-54
2021/06/16 13:38:57;;;;;;;11.00;9.25;;;;;;;;;;5111721;28;20176;-53
2021/06/16 13:41:23;;;;;;;9.48;8.57;;;;;;;;;;5117010;27;20203;-51
2021/06/16 13:43:48;;;;;;;10.05;8.95;;;;;;;;;;5112051;27;20609;-53
2021/06/16 13:46:16;;;;;;;10.23;9.07;;;;;;;;;;5107931;28;20188;-54
2021/06/16 13:48:44;;;;;;;9.70;8.80;;;;;;;;;;5106370;28;20219;-52
2021/06/16 13:51:12;;;;;;;10.88;9.88;;;;;;;;;;5111148;27;20198;-52
2021/06/16 13:53:43;;;;;;;10.35;7.78;;;;;;;;;;5114547;27;20193;-52
2021/06/16 13:56:10;;;;;;;11.38;10.18;;;;;;;;;;5104658;27;20220;-54
2021/06/16 13:58:35;;;;;;;12.02;9.07;;;;;;;;;;5108170;27;20228;-52
2021/06/16 14:01:04;;;;;;;7.93;7.22;;;;;;;;;;5106057;28;20208;-53
2021/06/16 14:03:30;;;;;;;13.98;9.75;;;;;;;;;;5126367;27;20179;-53
2021/06/16 14:05:56;;;;;;;10.20;9.00;;;;;;;;;;5110020;27;20271;-53
2021/06/16 14:08:21;;;;;;;10.93;9.05;;;;;;;;;;5106506;28;20291;-53
2021/06/16 14:10:49;;;;;;;10.88;8.25;;;;;;;;;;5116804;27;20651;-53
2021/06/16 14:13:18;;;;;;;10.18;9.20;;;;;;;;;;5105129;27;20191;-53
2021/06/16 14:15:47;;;;;;;10.05;9.05;;;;;;;;;;5107016;27;20214;-53
2021/06/16 14:18:15;;;;;;;9.30;6.90;;;;;;;;;;5113414;27;20585;-53
2021/06/16 14:20:41;;;;;;;11.27;9.52;;;;;;;;;;5112053;27;20180;-54
2021/06/16 14:23:11;;;;;;;10.52;9.52;;;;;;;;;;5111552;27;20679;-52
2021/06/16 14:25:38;;;;;;;12.02;9.00;;;;;;;;;;5109915;27;20217;-52
2021/06/16 14:28:11;;;;;;;12.93;8.32;;;;;;;;;;5110159;27;20333;-53
2021/06/16 14:30:37;;;;;;;8.40;7.35;;;;;;;;;;5104857;27;20694;-54
2021/06/16 14:33:07;;;;;;;10.23;9.00;;;;;;;;;;5108877;27;20188;-54
2021/06/16 14:35:36;;;;;;;10.10;9.10;;;;;;;;;;5103265;28;20278;-53
2021/06/16 14:38:02;;;;;;;8.80;7.93;;;;;;;;;;5107261;28;20318;-53
2021/06/16 14:40:30;;;;;;;9.73;7.60;;;;;;;;;;5107390;28;20267;-53
2021/06/16 14:42:57;;;;;;;11.02;8.90;;;;;;;;;;5106208;28;20720;-53
2021/06/16 14:45:25;;;;;;;9.85;8.90;;;;;;;;;;5103166;27;20215;-53
2021/06/16 14:47:51;;;;;;;10.30;8.27;;;;;;;;;;5101913;27;20200;-56
2021/06/16 14:50:19;;;;;;;8.65;7.85;;;;;;;;;;5094122;28;20577;-55
2021/06/16 14:52:47;;;;;;;11.85;8.32;;;;;;;;;;5096050;27;20176;-53